createdAt,value
2019-06-07T00:01:29.640Z,1.50
2019-06-07T00:03:56.449Z,1.67
2019-06-07T00:06:25.368Z,1.20
2019-06-07T00:08:52.197Z,1.73
2019-06-07T00:11:20.690Z,1.50
2019-06-07T00:13:47.638Z,1.53
2019-06-07T00:16:19.105Z,1.40
2019-06-07T00:18:43.280Z,1.50
2019-06-07T00:21:10.090Z,1.73
2019-06-07T00:23:36.905Z,1.20
2019-06-07T00:26:03.841Z,2.13
2019-06-07T00:28:30.549Z,1.30
2019-06-07T00:30:57.392Z,1.33
2019-06-07T00:33:25.101Z,1.87
2019-06-07T00:35:52.111Z,1.53
2019-06-07T00:38:21.751Z,1.80
2019-06-07T00:40:48.132Z,2.73
2019-06-07T00:43:17.611Z,1.73
2019-06-07T00:45:43.474Z,1.63
2019-06-07T00:48:16.192Z,1.93
2019-06-07T00:50:39.257Z,2.30
2019-06-07T00:53:17.544Z,1.83
2019-06-07T00:55:34.848Z,2.03
2019-06-07T00:58:07.717Z,1.93
2019-06-07T01:00:34.512Z,1.73
2019-06-07T01:03:01.343Z,1.70
2019-06-07T01:05:31.425Z,2.00
2019-06-07T01:07:56.995Z,2.37
2019-06-07T01:10:51.788Z,1.73
2019-06-07T01:12:52.516Z,3.20
2019-06-07T01:15:27.599Z,3.67
2019-06-07T01:18:33.224Z,2.83
2019-06-07T01:20:23.822Z,2.40
2019-06-07T01:22:48.652Z,3.20
2019-06-07T01:25:15.818Z,4.03
2019-06-07T01:27:42.734Z,4.17
2019-06-07T01:30:10.408Z,2.83
2019-06-07T01:32:37.354Z,2.80
2019-06-07T01:35:04.785Z,2.87
2019-06-07T01:37:31.516Z,5.37
2019-06-07T01:39:58.224Z,2.67
2019-06-07T01:42:28.880Z,3.17
2019-06-07T01:44:58.858Z,2.87
2019-06-07T01:47:31.236Z,7.03
2019-06-07T01:49:54.280Z,3.57
2019-06-07T01:52:23.538Z,3.17
2019-06-07T01:54:58.030Z,4.03
2019-06-07T01:57:36.579Z,3.80
2019-06-07T01:59:47.246Z,3.30
2019-06-07T02:02:14.133Z,3.67
2019-06-07T02:04:40.890Z,3.37
2019-06-07T02:07:07.605Z,3.97
2019-06-07T02:09:34.429Z,5.00
2019-06-07T02:12:01.371Z,3.30
2019-06-07T02:14:30.618Z,3.67
2019-06-07T02:16:56.956Z,3.43
2019-06-07T02:19:24.277Z,3.83
2019-06-07T02:21:51.116Z,4.43
2019-06-07T02:24:24.487Z,3.87
2019-06-07T02:26:47.922Z,4.30
2019-06-07T02:29:14.826Z,4.33
2019-06-07T02:31:42.700Z,3.93
2019-06-07T02:34:09.509Z,4.43
2019-06-07T02:36:41.346Z,3.70
2019-06-07T02:39:05.860Z,3.33
2019-06-07T02:41:38.549Z,3.77
2019-06-07T02:44:01.626Z,5.77
2019-06-07T02:46:36.196Z,4.37
2019-06-07T02:48:57.065Z,3.50
2019-06-07T02:51:27.290Z,4.30
2019-06-07T02:53:52.566Z,4.13
2019-06-07T02:56:48.605Z,5.77
2019-06-07T02:58:48.455Z,3.73
2019-06-07T03:01:15.761Z,4.53
2019-06-07T03:03:42.683Z,4.00
2019-06-07T03:06:12.546Z,4.70
2019-06-07T03:08:39.652Z,4.73
2019-06-07T03:11:06.755Z,5.67
2019-06-07T03:13:37.172Z,5.10
2019-06-07T03:16:03.924Z,5.47
2019-06-07T03:19:05.280Z,4.53
2019-06-07T03:21:36.362Z,4.43
2019-06-07T03:24:03.493Z,4.87
2019-06-07T03:26:34.908Z,5.43
2019-06-07T03:29:00.218Z,5.37
2019-06-07T03:31:31.310Z,4.80
2019-06-07T03:33:56.217Z,4.33
2019-06-07T03:36:25.741Z,6.93
2019-06-07T03:38:51.834Z,5.93
2019-06-07T03:41:18.665Z,5.97
2019-06-07T03:43:45.461Z,4.60
2019-06-07T03:46:12.362Z,4.47
2019-06-07T03:48:41.386Z,5.27
2019-06-07T03:51:24.252Z,4.67
2019-06-07T03:53:37.358Z,4.80
2019-06-07T03:56:05.379Z,4.90
2019-06-07T03:58:37.893Z,5.03
2019-06-07T04:01:04.951Z,4.53
2019-06-07T04:03:42.104Z,5.20
2019-06-07T04:06:00.484Z,4.23
2019-06-07T04:08:28.271Z,5.80
2019-06-07T04:11:00.282Z,5.57
2019-06-07T04:13:24.076Z,4.40
2019-06-07T04:15:51.186Z,5.13
2019-06-07T04:18:18.639Z,3.97
2019-06-07T04:20:45.454Z,5.07
2019-06-07T04:23:27.902Z,5.60
2019-06-07T04:25:42.636Z,5.03
2019-06-07T04:28:09.683Z,6.37
2019-06-07T04:30:42.009Z,4.13
2019-06-07T04:33:09.678Z,4.67
2019-06-07T04:35:40.042Z,4.67
2019-06-07T04:38:06.579Z,4.93
2019-06-07T04:40:35.847Z,5.80
2019-06-07T04:43:02.826Z,4.17
2019-06-07T04:45:37.360Z,5.43
2019-06-07T04:47:59.173Z,4.73
2019-06-07T04:50:27.234Z,5.53
2019-06-07T04:52:54.027Z,7.07
2019-06-07T04:55:29.055Z,7.53
2019-06-07T04:57:56.476Z,4.80
2019-06-07T05:00:49.781Z,5.50
2019-06-07T05:03:00.594Z,5.47
2019-06-07T05:05:29.301Z,5.80
2019-06-07T05:07:56.311Z,6.30
2019-06-07T05:10:23.128Z,5.83
2019-06-07T05:12:49.823Z,4.87
2019-06-07T05:15:16.670Z,5.10
2019-06-07T05:17:45.223Z,4.40
2019-06-07T05:20:12.105Z,4.47
2019-06-07T05:22:44.391Z,5.37
2019-06-07T05:25:07.976Z,5.33
2019-06-07T05:27:36.457Z,9.27
2019-06-07T05:30:13.634Z,5.20
2019-06-07T05:32:34.277Z,4.40
2019-06-07T05:35:01.327Z,6.70
2019-06-07T05:37:38.045Z,5.90
2019-06-07T05:40:05.666Z,6.63
2019-06-07T05:42:34.570Z,7.10
2019-06-07T05:45:01.452Z,5.60
2019-06-07T05:47:28.304Z,5.07
2019-06-07T05:49:55.342Z,6.63
2019-06-07T05:52:23.490Z,7.03
2019-06-07T05:54:51.379Z,6.20
2019-06-07T05:57:23.966Z,4.47
2019-06-07T05:59:50.898Z,6.63
2019-06-07T06:02:23.160Z,8.13
2019-06-07T06:04:50.719Z,6.70
2019-06-07T06:07:34.761Z,7.40
2019-06-07T06:10:03.183Z,5.37
2019-06-07T06:12:35.467Z,6.37
2019-06-07T06:14:58.669Z,5.00
2019-06-07T06:17:36.865Z,5.77
2019-06-07T06:20:07.917Z,7.17
2019-06-07T06:22:41.710Z,6.40
2019-06-07T06:25:31.557Z,4.77
2019-06-07T06:28:05.900Z,8.10
2019-06-07T06:30:08.844Z,5.97
2019-06-07T06:32:54.379Z,4.23
2019-06-07T06:35:05.465Z,4.03
2019-06-07T06:37:32.290Z,3.17
2019-06-07T06:39:59.146Z,4.00
2019-06-07T06:42:26.093Z,4.90
2019-06-07T06:44:54.242Z,3.93
2019-06-07T06:47:21.527Z,5.47
2019-06-07T06:49:50.021Z,3.30
2019-06-07T06:52:17.119Z,4.83
2019-06-07T06:54:59.228Z,4.47
2019-06-07T06:57:26.376Z,2.77
2019-06-07T06:59:55.674Z,4.03
2019-06-07T07:02:23.883Z,5.03
2019-06-07T07:04:54.175Z,3.37
2019-06-07T07:07:23.193Z,4.67
2019-06-07T07:09:54.958Z,3.70
2019-06-07T07:12:19.257Z,4.10
2019-06-07T07:14:49.172Z,4.10
2019-06-07T07:17:14.722Z,5.17
2019-06-07T07:19:42.567Z,4.33
2019-06-07T07:22:10.391Z,3.70
2019-06-07T07:24:37.094Z,2.73
2019-06-07T07:27:03.947Z,2.70
2019-06-07T07:29:31.008Z,3.47
2019-06-07T07:31:57.836Z,2.63
2019-06-07T07:34:34.689Z,3.50
2019-06-07T07:36:59.229Z,2.77
2019-06-07T07:39:22.318Z,2.87
2019-06-07T07:42:15.323Z,4.57
2019-06-07T07:44:17.856Z,3.17
2019-06-07T07:46:46.511Z,3.07
2019-06-07T07:49:13.440Z,3.67
2019-06-07T07:51:40.219Z,4.43
2019-06-07T07:54:10.616Z,4.53
2019-06-07T07:56:35.772Z,4.67
2019-06-07T07:59:03.053Z,5.17
2019-06-07T08:01:29.893Z,3.37
2019-06-07T08:03:57.397Z,3.47
2019-06-07T08:06:25.576Z,3.70
2019-06-07T08:08:54.475Z,3.87
2019-06-07T08:11:21.104Z,4.87
2019-06-07T08:13:48.127Z,3.70
2019-06-07T08:16:18.535Z,5.90
2019-06-07T08:18:43.659Z,2.87
2019-06-07T08:21:24.355Z,4.63
2019-06-07T08:23:39.323Z,3.90
2019-06-07T08:26:07.343Z,4.57
2019-06-07T08:28:34.270Z,4.40
2019-06-07T08:31:07.044Z,3.90
2019-06-07T08:33:30.136Z,5.13
2019-06-07T08:36:10.529Z,3.10
2019-06-07T08:38:29.741Z,2.83
2019-06-07T08:40:59.135Z,3.00
2019-06-07T08:43:23.035Z,2.50
2019-06-07T08:45:51.272Z,2.70
2019-06-07T08:48:27.907Z,3.73
2019-06-07T08:50:47.561Z,3.67
2019-06-07T08:53:14.382Z,2.93
2019-06-07T08:55:41.832Z,4.63
2019-06-07T08:58:09.123Z,3.07
2019-06-07T09:00:47.091Z,4.10
2019-06-07T09:03:07.167Z,3.40
2019-06-07T09:05:33.524Z,4.37
2019-06-07T09:08:23.663Z,2.53
2019-06-07T09:10:30.110Z,3.40
2019-06-07T09:13:03.875Z,3.57
2019-06-07T09:15:27.016Z,3.13
2019-06-07T09:18:40.144Z,2.40
2019-06-07T09:20:36.664Z,3.30
2019-06-07T09:22:59.098Z,4.00
2019-06-07T09:25:24.806Z,4.57
2019-06-07T09:27:51.595Z,2.80
2019-06-07T09:30:44.292Z,4.60
2019-06-07T09:33:11.846Z,2.40
2019-06-07T09:35:38.713Z,2.57
2019-06-07T09:38:18.141Z,2.07
2019-06-07T09:40:35.085Z,3.50
2019-06-07T09:43:47.411Z,4.30
2019-06-07T09:45:30.657Z,3.60
2019-06-07T09:47:59.467Z,2.97
2019-06-07T09:50:26.245Z,2.77
2019-06-07T09:52:58.703Z,3.33
2019-06-07T09:55:24.897Z,3.20
2019-06-07T09:57:50.347Z,2.50
2019-06-07T10:02:46.220Z,3.30
2019-06-07T10:05:14.333Z,2.90
2019-06-07T10:08:00.020Z,3.33
2019-06-07T10:12:39.201Z,3.10
2019-06-07T10:15:07.031Z,2.43
2019-06-07T10:17:33.809Z,2.50
2019-06-07T10:20:02.604Z,2.10
2019-06-07T10:22:29.210Z,2.80
2019-06-07T10:24:56.033Z,2.40
2019-06-07T10:27:22.776Z,2.50
2019-06-07T10:29:49.558Z,1.83
2019-06-07T10:32:16.402Z,2.43
2019-06-07T10:34:43.310Z,3.00
2019-06-07T10:37:15.016Z,3.10
2019-06-07T10:39:48.204Z,2.87
2019-06-07T10:42:08.255Z,2.80
2019-06-07T10:44:36.172Z,2.40
2019-06-07T10:47:04.000Z,2.07
2019-06-07T10:49:31.083Z,1.73
2019-06-07T10:52:02.946Z,2.40
2019-06-07T10:54:30.824Z,2.13
2019-06-07T10:56:57.401Z,3.07
2019-06-07T10:59:24.187Z,2.57
2019-06-07T11:01:51.065Z,3.10
2019-06-07T11:04:17.786Z,2.67
2019-06-07T11:06:44.733Z,3.73
2019-06-07T11:09:12.054Z,2.17
2019-06-07T11:11:39.115Z,2.53
2019-06-07T11:14:06.427Z,3.87
2019-06-07T11:16:33.211Z,2.40
2019-06-07T11:19:00.138Z,2.40
2019-06-07T11:21:26.978Z,2.13
2019-06-07T11:23:53.783Z,3.80
2019-06-07T11:26:20.592Z,3.37
2019-06-07T11:28:47.475Z,2.77
2019-06-07T11:31:15.132Z,4.00
2019-06-07T11:33:42.249Z,2.33
2019-06-07T11:36:08.962Z,3.57
2019-06-07T11:38:35.756Z,2.60
2019-06-07T11:41:02.590Z,2.87
2019-06-07T11:43:29.294Z,2.50
2019-06-07T11:45:56.122Z,4.20
2019-06-07T11:48:23.010Z,2.33
2019-06-07T11:50:49.947Z,3.20
2019-06-07T11:53:16.634Z,4.27
2019-06-07T11:55:43.540Z,2.50
2019-06-07T11:58:14.353Z,3.00
2019-06-07T12:00:40.119Z,2.13
2019-06-07T12:03:11.576Z,3.07
2019-06-07T12:05:38.501Z,2.60
2019-06-07T12:08:06.397Z,2.60
2019-06-07T12:10:42.148Z,2.40
2019-06-07T12:13:01.916Z,3.23
2019-06-07T12:15:28.846Z,3.33
2019-06-07T12:18:00.770Z,3.17
2019-06-07T12:20:28.679Z,3.63
2019-06-07T12:22:55.509Z,3.00
2019-06-07T12:25:25.150Z,2.87
2019-06-07T12:27:52.198Z,2.77
2019-06-07T12:30:26.266Z,2.40
2019-06-07T12:32:48.054Z,2.80
2019-06-07T12:35:15.654Z,2.53
2019-06-07T12:37:44.732Z,3.17
2019-06-07T12:40:15.751Z,2.67
2019-06-07T12:42:40.185Z,3.20
2019-06-07T12:45:07.344Z,4.27
2019-06-07T12:47:34.158Z,2.53
2019-06-07T12:50:01.151Z,2.57
2019-06-07T12:52:27.859Z,2.60
2019-06-07T12:54:54.677Z,3.27
2019-06-07T12:57:22.111Z,2.47
2019-06-07T12:59:49.480Z,4.23
2019-06-07T13:02:16.434Z,2.00
2019-06-07T13:04:44.227Z,3.77
2019-06-07T13:07:11.037Z,2.43
2019-06-07T13:09:37.729Z,2.67
2019-06-07T13:12:04.619Z,2.43
2019-06-07T13:14:31.456Z,3.07
2019-06-07T13:16:58.325Z,2.20
2019-06-07T13:19:25.134Z,2.53
2019-06-07T13:21:52.001Z,3.47
2019-06-07T13:24:19.399Z,2.87
2019-06-07T13:26:47.606Z,2.50
2019-06-07T13:29:14.410Z,2.90
2019-06-07T13:31:41.574Z,2.93
2019-06-07T13:34:08.358Z,2.80
2019-06-07T13:36:35.310Z,3.77
2019-06-07T13:39:02.134Z,2.43
2019-06-07T13:41:40.546Z,2.67
2019-06-07T13:43:57.626Z,2.50
2019-06-07T13:46:25.272Z,2.23
2019-06-07T13:48:52.514Z,2.77
2019-06-07T13:51:22.511Z,2.40
2019-06-07T13:53:48.068Z,2.20
2019-06-07T13:56:21.790Z,2.03
2019-06-07T13:58:48.814Z,2.37
2019-06-07T14:01:16.042Z,3.17
2019-06-07T14:03:42.868Z,2.50
2019-06-07T14:06:09.842Z,6.73
2019-06-07T14:08:36.958Z,4.20
2019-06-07T14:11:03.966Z,2.83
2019-06-07T14:13:30.814Z,2.13
2019-06-07T14:15:57.785Z,2.10
2019-06-07T14:18:24.647Z,2.40
2019-06-07T14:20:51.675Z,3.60
2019-06-07T14:23:18.528Z,4.13
2019-06-07T14:25:45.389Z,2.10
2019-06-07T14:28:13.481Z,2.40
2019-06-07T14:30:40.309Z,2.97
2019-06-07T14:33:07.094Z,3.23
2019-06-07T14:35:33.831Z,2.57
2019-06-07T14:38:00.518Z,2.57
2019-06-07T14:40:27.968Z,2.13
2019-06-07T14:42:54.832Z,2.03
2019-06-07T14:45:21.868Z,3.17
2019-06-07T14:47:48.822Z,2.83
2019-06-07T14:50:16.688Z,2.40
2019-06-07T14:52:43.519Z,2.67
2019-06-07T14:55:10.407Z,2.57
2019-06-07T14:57:38.549Z,2.63
2019-06-07T15:00:11.322Z,2.40
2019-06-07T15:02:42.753Z,2.13
2019-06-07T15:05:09.840Z,2.10
2019-06-07T15:07:36.881Z,2.40
2019-06-07T15:10:04.375Z,2.47
2019-06-07T15:12:31.219Z,2.20
2019-06-07T15:14:58.534Z,2.33
2019-06-07T15:17:26.462Z,2.67
2019-06-07T15:19:53.383Z,4.27
2019-06-07T15:22:20.276Z,2.00
2019-06-07T15:24:47.067Z,2.17
2019-06-07T15:27:15.833Z,2.67
2019-06-07T15:29:42.870Z,2.40
2019-06-07T15:32:10.156Z,2.50
2019-06-07T15:34:38.391Z,2.03
2019-06-07T15:37:07.779Z,2.10
2019-06-07T15:39:34.736Z,2.20
2019-06-07T15:42:01.632Z,3.70
2019-06-07T15:44:31.327Z,2.87
2019-06-07T15:46:58.180Z,2.13
2019-06-07T15:49:25.089Z,2.50
2019-06-07T15:51:51.934Z,1.97
2019-06-07T15:54:18.677Z,2.13
2019-06-07T15:56:45.703Z,2.10
2019-06-07T15:59:12.549Z,2.20
2019-06-07T16:01:39.713Z,2.00
2019-06-07T16:04:06.646Z,2.20
2019-06-07T16:06:34.278Z,1.90
2019-06-07T16:09:01.389Z,2.00
2019-06-07T16:11:28.470Z,2.20
2019-06-07T16:13:55.257Z,2.90
2019-06-07T16:16:22.307Z,2.57
2019-06-07T16:18:49.199Z,2.23
2019-06-07T16:21:16.102Z,3.00
2019-06-07T16:23:44.091Z,2.40
2019-06-07T16:26:10.975Z,2.80
2019-06-07T16:28:38.299Z,2.50
2019-06-07T16:31:05.454Z,2.70
2019-06-07T16:33:32.329Z,1.90
2019-06-07T16:35:59.290Z,1.97
2019-06-07T16:38:26.068Z,2.73
2019-06-07T16:40:52.751Z,1.97
2019-06-07T16:43:21.542Z,2.03
2019-06-07T16:45:49.039Z,2.87
2019-06-07T16:48:16.036Z,2.23
2019-06-07T16:50:43.054Z,2.43
2019-06-07T16:53:11.106Z,3.27
2019-06-07T16:55:38.708Z,1.77
2019-06-07T16:58:05.639Z,2.17
2019-06-07T17:00:32.339Z,2.43
2019-06-07T17:02:59.045Z,2.90
2019-06-07T17:05:25.848Z,2.77
2019-06-07T17:07:52.689Z,2.23
2019-06-07T17:10:20.505Z,2.07
2019-06-07T17:12:48.806Z,2.53
2019-06-07T17:15:17.446Z,2.40
2019-06-07T17:17:45.130Z,2.10
2019-06-07T17:20:15.549Z,2.20
2019-06-07T17:22:43.901Z,4.63
2019-06-07T17:25:13.296Z,2.73
2019-06-07T17:27:40.068Z,2.83
2019-06-07T17:30:07.784Z,2.40
2019-06-07T17:32:47.600Z,2.03
2019-06-07T17:35:04.072Z,2.53
2019-06-07T17:37:30.834Z,3.77
2019-06-07T17:39:57.779Z,2.10
2019-06-07T17:42:24.475Z,2.47
2019-06-07T17:44:51.560Z,2.10
2019-06-07T17:47:18.489Z,2.43
2019-06-07T17:49:45.806Z,2.20
2019-06-07T17:52:12.908Z,2.93
2019-06-07T17:54:39.727Z,2.30
2019-06-07T17:57:06.432Z,2.47
2019-06-07T17:59:33.123Z,3.27
2019-06-07T18:02:14.386Z,2.50
2019-06-07T18:04:29.749Z,2.63
2019-06-07T18:06:56.662Z,3.40
2019-06-07T18:09:23.789Z,4.87
2019-06-07T18:11:50.585Z,4.90
2019-06-07T18:14:17.359Z,3.40
2019-06-07T18:16:44.438Z,3.37
2019-06-07T18:19:11.275Z,3.13
2019-06-07T18:21:38.080Z,3.80
2019-06-07T18:24:04.899Z,4.53
2019-06-07T18:26:31.638Z,2.97
2019-06-07T18:28:59.350Z,3.80
2019-06-07T18:31:26.241Z,2.63
2019-06-07T18:33:53.048Z,2.13
2019-06-07T18:36:19.724Z,2.63
2019-06-07T18:38:46.941Z,3.80
2019-06-07T18:41:13.876Z,2.10
2019-06-07T18:43:40.648Z,2.30
2019-06-07T18:46:07.331Z,2.60
2019-06-07T18:48:34.108Z,2.40
2019-06-07T18:51:00.813Z,2.17
2019-06-07T18:53:27.513Z,2.90
2019-06-07T18:55:54.376Z,2.20
2019-06-07T18:58:21.232Z,2.30
2019-06-07T19:00:49.766Z,3.03
2019-06-07T19:03:16.855Z,3.70
2019-06-07T19:05:43.699Z,3.03
2019-06-07T19:08:10.516Z,3.87
2019-06-07T19:10:37.089Z,2.27
2019-06-07T19:13:03.919Z,3.60
2019-06-07T19:15:38.729Z,2.83
2019-06-07T19:18:05.594Z,2.63
2019-06-07T19:20:32.429Z,3.03
2019-06-07T19:23:00.505Z,2.43
2019-06-07T19:25:27.580Z,3.63
2019-06-07T19:27:54.964Z,3.93
2019-06-07T19:30:21.844Z,2.73
2019-06-07T19:32:49.762Z,2.73
2019-06-07T19:35:17.766Z,2.43
2019-06-07T19:37:44.568Z,3.97
2019-06-07T19:40:11.592Z,3.53
2019-06-07T19:42:39.541Z,3.50
2019-06-07T19:45:29.095Z,2.70
2019-06-07T19:47:43.690Z,3.23
2019-06-07T19:50:13.039Z,3.30
2019-06-07T19:52:39.817Z,4.13
2019-06-07T19:55:09.812Z,4.83
2019-06-07T19:57:41.784Z,3.50
2019-06-07T20:00:14.507Z,3.70
2019-06-07T20:02:42.337Z,4.67
2019-06-07T20:05:13.924Z,2.93
2019-06-07T20:07:40.860Z,3.53
2019-06-07T20:10:14.807Z,3.90
2019-06-07T20:12:41.767Z,4.87
2019-06-07T20:15:27.997Z,4.43
2019-06-07T20:17:44.532Z,4.70
2019-06-07T20:20:19.103Z,4.60
2019-06-07T20:22:48.028Z,4.13
2019-06-07T20:25:15.284Z,4.07
2019-06-07T20:27:42.251Z,3.77
2019-06-07T20:30:10.907Z,4.13
2019-06-07T20:32:37.816Z,4.30
2019-06-07T20:35:06.030Z,4.03
2019-06-07T20:37:35.026Z,3.97
2019-06-07T20:40:20.738Z,5.33
2019-06-07T20:42:46.986Z,5.50
2019-06-07T20:45:32.543Z,3.83
2019-06-07T20:47:49.668Z,3.73
2019-06-07T20:50:16.720Z,4.60
2019-06-07T20:52:44.587Z,3.30
2019-06-07T20:55:17.185Z,4.53
2019-06-07T20:57:44.936Z,4.00
2019-06-07T21:00:22.108Z,4.30
2019-06-07T21:02:51.509Z,5.03
2019-06-07T21:05:20.321Z,7.17
2019-06-07T21:07:49.370Z,7.03
2019-06-07T21:10:18.922Z,4.67
2019-06-07T21:12:45.772Z,8.63
2019-06-07T21:15:14.524Z,4.67
2019-06-07T21:17:41.908Z,5.50
2019-06-07T21:20:13.778Z,6.17
2019-06-07T21:22:38.533Z,5.83
2019-06-07T21:25:07.260Z,5.60
2019-06-07T21:27:35.248Z,4.03
2019-06-07T21:30:03.495Z,6.50
2019-06-07T21:32:31.589Z,3.37
2019-06-07T21:34:58.399Z,3.70
2019-06-07T21:37:25.301Z,5.57
2019-06-07T21:39:54.263Z,6.23
2019-06-07T21:42:22.207Z,3.83
2019-06-07T21:44:50.692Z,2.83
2019-06-07T21:47:17.622Z,4.00
2019-06-07T21:49:44.365Z,3.93
2019-06-07T21:52:11.250Z,8.80
2019-06-07T21:54:38.025Z,11.20
2019-06-07T21:57:04.839Z,3.53
2019-06-07T21:59:31.653Z,2.67
2019-06-07T22:01:58.612Z,1.37
2019-06-07T22:04:25.489Z,3.50
2019-06-07T22:06:52.524Z,3.50
2019-06-07T22:09:19.333Z,2.60
2019-06-07T22:11:46.116Z,3.43
2019-06-07T22:14:12.893Z,1.60
2019-06-07T22:16:39.716Z,1.13
2019-06-07T22:19:06.648Z,2.43
2019-06-07T22:21:33.440Z,1.43
2019-06-07T22:24:00.244Z,0.90
2019-06-07T22:26:27.030Z,0.60
2019-06-07T22:28:55.915Z,0.87
2019-06-07T22:31:22.703Z,2.20
2019-06-07T22:33:49.471Z,2.37
2019-06-07T22:36:16.242Z,0.90
2019-06-07T22:38:42.978Z,2.27
2019-06-07T22:41:09.794Z,0.83
2019-06-07T22:43:36.458Z,2.10
2019-06-07T22:46:03.400Z,0.77
2019-06-07T22:48:31.238Z,0.60
2019-06-07T22:51:00.091Z,1.20
2019-06-07T22:53:26.874Z,0.40
2019-06-07T22:56:00.471Z,2.73
2019-06-07T22:58:27.375Z,1.80
2019-06-07T23:00:54.152Z,1.47
2019-06-07T23:03:20.965Z,1.07
2019-06-07T23:05:47.754Z,1.50
2019-06-07T23:08:15.009Z,0.20
2019-06-07T23:10:41.884Z,1.53
2019-06-07T23:13:09.280Z,0.30
2019-06-07T23:15:36.105Z,0.70
2019-06-07T23:18:02.871Z,1.10
2019-06-07T23:20:29.657Z,0.40
2019-06-07T23:22:56.468Z,0.87
2019-06-07T23:25:24.696Z,0.93
2019-06-07T23:27:51.628Z,0.40
2019-06-07T23:30:21.706Z,0.60
2019-06-07T23:32:48.539Z,0.53
2019-06-07T23:35:17.089Z,0.97
2019-06-07T23:37:44.159Z,0.20
2019-06-07T23:40:11.259Z,0.80
2019-06-07T23:42:38.016Z,2.57
2019-06-07T23:45:04.851Z,0.60
2019-06-07T23:47:31.710Z,0.33
2019-06-07T23:49:58.398Z,0.23
2019-06-07T23:52:25.107Z,0.37
2019-06-07T23:54:51.884Z,0.30
2019-06-07T23:57:19.548Z,0.30
2019-06-07T23:59:47.263Z,0.33
